EJU48N LFLL-LEPA
Flight info
| Callsign | EJU48N |
|---|---|
| Flight time | 1h 20m |
| Altitude | 37000 |
| Route | ROMAM A6 MTL DCT DIVKO DCT VATIR DCT PIVUS DCT BODEQ DCT VERSO L129 LUNIK |
| Aircraft | A320/M-SDE2E3FGHIJ1RWXYZ/LB1 |
Departure
| Time | 2026-05-07 15:18 |
|---|---|
| Airport | Lyon Saint-Exupéry Airport (LFLL) |
Arrival
| Time | 2026-05-07 16:39 |
|---|---|
| Airport | Palma de Mallorca Airport (LEPA) |
| Time | Latitude | Longitude | Altitude | Speed | Heading |
|---|---|---|---|---|---|
| 2026-05-07 14:50 | 45.72374 | 5.08035 | 797 ft | 0 kts | 33° |
| 2026-05-07 15:06 | 45.72360 | 5.08023 | 797 ft | 4 kts | 44° |
| 2026-05-07 15:06 | 45.72346 | 5.08004 | 797 ft | 4 kts | 13° |
| 2026-05-07 15:06 | 45.72335 | 5.08011 | 797 ft | 4 kts | 289° |
| 2026-05-07 15:07 | 45.72330 | 5.08031 | 797 ft | 0 kts | 289° |
| 2026-05-07 15:11 | 45.72331 | 5.08029 | 797 ft | 2 kts | 289° |
| 2026-05-07 15:11 | 45.72346 | 5.07963 | 797 ft | 12 kts | 289° |
| 2026-05-07 15:11 | 45.72379 | 5.07836 | 797 ft | 14 kts | 296° |
| 2026-05-07 15:12 | 45.72480 | 5.07800 | 796 ft | 18 kts | 5° |
| 2026-05-07 15:12 | 45.72497 | 5.07805 | 796 ft | 0 kts | 15° |
| 2026-05-07 15:12 | 45.72520 | 5.07851 | 797 ft | 16 kts | 81° |
| 2026-05-07 15:12 | 45.72478 | 5.08032 | 797 ft | 20 kts | 110° |
| 2026-05-07 15:13 | 45.72475 | 5.08230 | 797 ft | 21 kts | 75° |
| 2026-05-07 15:13 | 45.72477 | 5.08395 | 796 ft | 13 kts | 141° |
| 2026-05-07 15:13 | 45.72410 | 5.08403 | 797 ft | 13 kts | 173° |
| 2026-05-07 15:13 | 45.72328 | 5.08336 | 797 ft | 15 kts | 252° |
| 2026-05-07 15:14 | 45.72265 | 5.08287 | 797 ft | 10 kts | 151° |
| 2026-05-07 15:14 | 45.72208 | 5.08321 | 798 ft | 8 kts | 173° |
| 2026-05-07 15:14 | 45.72156 | 5.08313 | 798 ft | 8 kts | 192° |
| 2026-05-07 15:14 | 45.72080 | 5.08280 | 797 ft | 19 kts | 197° |
| 2026-05-07 15:15 | 45.71967 | 5.08230 | 797 ft | 19 kts | 197° |
| 2026-05-07 15:15 | 45.71844 | 5.08185 | 797 ft | 21 kts | 194° |
| 2026-05-07 15:15 | 45.71684 | 5.08079 | 798 ft | 26 kts | 192° |
| 2026-05-07 15:15 | 45.71510 | 5.08009 | 800 ft | 26 kts | 192° |
| 2026-05-07 15:16 | 45.71446 | 5.08086 | 801 ft | 9 kts | 100° |
| 2026-05-07 15:16 | 45.71411 | 5.08290 | 803 ft | 23 kts | 95° |
| 2026-05-07 15:16 | 45.71401 | 5.08506 | 809 ft | 20 kts | 126° |
| 2026-05-07 15:16 | 45.71320 | 5.08536 | 813 ft | 13 kts | 175° |
| 2026-05-07 15:17 | 45.71159 | 5.08573 | 815 ft | 25 kts | 148° |
| 2026-05-07 15:17 | 45.71093 | 5.08781 | 819 ft | 23 kts | 103° |
| 2026-05-07 15:17 | 45.71110 | 5.08994 | 820 ft | 22 kts | 42° |
| 2026-05-07 15:17 | 45.71269 | 5.09005 | 818 ft | 30 kts | 355° |
| 2026-05-07 15:18 | 45.71721 | 5.08953 | 809 ft | 97 kts | 355° |
| 2026-05-07 15:18 | 45.72586 | 5.08849 | 792 ft | 151 kts | 355° |
| 2026-05-07 15:18 | 45.73725 | 5.08714 | 1163 ft | 166 kts | 355° |
| 2026-05-07 15:18 | 45.74882 | 5.08557 | 1880 ft | 168 kts | 356° |
| 2026-05-07 15:19 | 45.76098 | 5.08427 | 2329 ft | 187 kts | 355° |
| 2026-05-07 15:19 | 45.77470 | 5.08244 | 2627 ft | 212 kts | 354° |
| 2026-05-07 15:19 | 45.79008 | 5.08045 | 3167 ft | 229 kts | 355° |
| 2026-05-07 15:19 | 45.80616 | 5.07853 | 3998 ft | 233 kts | 355° |
| 2026-05-07 15:20 | 45.82258 | 5.07792 | 4729 ft | 242 kts | 10° |
| 2026-05-07 15:20 | 45.83741 | 5.08884 | 4995 ft | 245 kts | 48° |
| 2026-05-07 15:20 | 45.84397 | 5.11125 | 5686 ft | 252 kts | 87° |
| 2026-05-07 15:20 | 45.83967 | 5.13546 | 6471 ft | 256 kts | 125° |
| 2026-05-07 15:21 | 45.82617 | 5.15143 | 7257 ft | 255 kts | 160° |
| 2026-05-07 15:21 | 45.80943 | 5.15950 | 8156 ft | 253 kts | 164° |
| 2026-05-07 15:21 | 45.79265 | 5.16716 | 9100 ft | 253 kts | 164° |
| 2026-05-07 15:21 | 45.77581 | 5.17487 | 9966 ft | 255 kts | 163° |
| 2026-05-07 15:22 | 45.75889 | 5.18273 | 10704 ft | 258 kts | 163° |
| 2026-05-07 15:22 | 45.74169 | 5.19080 | 11426 ft | 262 kts | 164° |
| 2026-05-07 15:22 | 45.72419 | 5.19883 | 12139 ft | 265 kts | 168° |
| 2026-05-07 15:22 | 45.70578 | 5.20225 | 12701 ft | 275 kts | 182° |
| 2026-05-07 15:23 | 45.68586 | 5.20117 | 12916 ft | 298 kts | 184° |
| 2026-05-07 15:23 | 45.66434 | 5.19968 | 13105 ft | 320 kts | 184° |
| 2026-05-07 15:23 | 45.64163 | 5.19805 | 13605 ft | 331 kts | 184° |
| 2026-05-07 15:23 | 45.61847 | 5.19639 | 14226 ft | 336 kts | 184° |
| 2026-05-07 15:24 | 45.59494 | 5.19482 | 14843 ft | 340 kts | 184° |
| 2026-05-07 15:24 | 45.57147 | 5.19335 | 15466 ft | 344 kts | 184° |
| 2026-05-07 15:24 | 45.54745 | 5.19183 | 16091 ft | 348 kts | 184° |
| 2026-05-07 15:24 | 45.52282 | 5.19025 | 16710 ft | 352 kts | 184° |
| 2026-05-07 15:25 | 45.49854 | 5.18867 | 17313 ft | 356 kts | 184° |
| 2026-05-07 15:25 | 45.47364 | 5.18705 | 17929 ft | 360 kts | 185° |
| 2026-05-07 15:25 | 45.44851 | 5.18541 | 18502 ft | 363 kts | 184° |
| 2026-05-07 15:25 | 45.42314 | 5.18374 | 19065 ft | 366 kts | 184° |
| 2026-05-07 15:26 | 45.39762 | 5.18210 | 19624 ft | 369 kts | 184° |
| 2026-05-07 15:26 | 45.37188 | 5.18048 | 20200 ft | 371 kts | 184° |
| 2026-05-07 15:26 | 45.34599 | 5.17887 | 20778 ft | 374 kts | 185° |
| 2026-05-07 15:26 | 45.31991 | 5.17723 | 21338 ft | 376 kts | 185° |
| 2026-05-07 15:27 | 45.29368 | 5.17561 | 21898 ft | 379 kts | 185° |
| 2026-05-07 15:27 | 45.26725 | 5.17398 | 22454 ft | 382 kts | 185° |
| 2026-05-07 15:27 | 45.24063 | 5.17229 | 23039 ft | 384 kts | 185° |
| 2026-05-07 15:27 | 45.21386 | 5.17057 | 23590 ft | 386 kts | 185° |
| 2026-05-07 15:28 | 45.18697 | 5.16885 | 24041 ft | 388 kts | 185° |
| 2026-05-07 15:28 | 45.15991 | 5.16711 | 24486 ft | 391 kts | 185° |
| 2026-05-07 15:28 | 45.13268 | 5.16529 | 24937 ft | 392 kts | 187° |
| 2026-05-07 15:28 | 45.10577 | 5.15961 | 25372 ft | 391 kts | 197° |
| 2026-05-07 15:29 | 45.08002 | 5.14744 | 25796 ft | 390 kts | 206° |
| 2026-05-07 15:29 | 45.05565 | 5.13062 | 26219 ft | 390 kts | 208° |
| 2026-05-07 15:29 | 45.03129 | 5.11348 | 26633 ft | 391 kts | 208° |
| 2026-05-07 15:29 | 45.00689 | 5.09633 | 27054 ft | 393 kts | 209° |
| 2026-05-07 15:30 | 44.98236 | 5.07910 | 27446 ft | 394 kts | 209° |
| 2026-05-07 15:30 | 44.95772 | 5.06187 | 27843 ft | 396 kts | 209° |
| 2026-05-07 15:30 | 44.93297 | 5.04462 | 28238 ft | 398 kts | 209° |
| 2026-05-07 15:30 | 44.90812 | 5.02730 | 28627 ft | 399 kts | 209° |
| 2026-05-07 15:31 | 44.88314 | 5.00991 | 28984 ft | 401 kts | 209° |
| 2026-05-07 15:31 | 44.85805 | 4.99244 | 29367 ft | 402 kts | 209° |
| 2026-05-07 15:31 | 44.83289 | 4.97491 | 29722 ft | 404 kts | 209° |
| 2026-05-07 15:31 | 44.80765 | 4.95735 | 30050 ft | 405 kts | 209° |
| 2026-05-07 15:32 | 44.78230 | 4.93978 | 30350 ft | 407 kts | 209° |
| 2026-05-07 15:32 | 44.75685 | 4.92216 | 30625 ft | 409 kts | 209° |
| 2026-05-07 15:32 | 44.73128 | 4.90442 | 30889 ft | 410 kts | 209° |
| 2026-05-07 15:32 | 44.70567 | 4.88657 | 31136 ft | 412 kts | 209° |
| 2026-05-07 15:33 | 44.68003 | 4.86850 | 31437 ft | 412 kts | 209° |
| 2026-05-07 15:33 | 44.65448 | 4.85042 | 31813 ft | 410 kts | 210° |
| 2026-05-07 15:33 | 44.62904 | 4.83235 | 32184 ft | 409 kts | 210° |
| 2026-05-07 15:33 | 44.60372 | 4.81438 | 32566 ft | 408 kts | 210° |
| 2026-05-07 15:34 | 44.57819 | 4.79710 | 32929 ft | 408 kts | 205° |
| 2026-05-07 15:34 | 44.55102 | 4.78518 | 33281 ft | 412 kts | 195° |
| 2026-05-07 15:34 | 44.52253 | 4.77997 | 33657 ft | 415 kts | 186° |
| 2026-05-07 15:34 | 44.49353 | 4.77980 | 34010 ft | 415 kts | 184° |
| 2026-05-07 15:35 | 44.46470 | 4.77987 | 34321 ft | 414 kts | 184° |
| 2026-05-07 15:35 | 44.43595 | 4.77986 | 34587 ft | 413 kts | 185° |
| 2026-05-07 15:35 | 44.40723 | 4.77979 | 34849 ft | 413 kts | 185° |
| 2026-05-07 15:35 | 44.37849 | 4.77968 | 35099 ft | 413 kts | 185° |
| 2026-05-07 15:36 | 44.34977 | 4.77954 | 35341 ft | 413 kts | 185° |
| 2026-05-07 15:36 | 44.32105 | 4.77943 | 35563 ft | 412 kts | 185° |
| 2026-05-07 15:36 | 44.29234 | 4.77934 | 35792 ft | 412 kts | 185° |
| 2026-05-07 15:36 | 44.26369 | 4.77927 | 36015 ft | 412 kts | 185° |
| 2026-05-07 15:37 | 44.23504 | 4.77920 | 36241 ft | 411 kts | 185° |
| 2026-05-07 15:37 | 44.20640 | 4.77914 | 36453 ft | 411 kts | 185° |
| 2026-05-07 15:37 | 44.17779 | 4.77909 | 36653 ft | 411 kts | 185° |
| 2026-05-07 15:37 | 44.14920 | 4.77906 | 36852 ft | 411 kts | 185° |
| 2026-05-07 15:38 | 44.09217 | 4.77897 | 36943 ft | 408 kts | 185° |
| 2026-05-07 15:38 | 44.03555 | 4.77886 | 36948 ft | 406 kts | 185° |
| 2026-05-07 15:39 | 43.97912 | 4.77868 | 36949 ft | 406 kts | 185° |
| 2026-05-07 15:39 | 43.92265 | 4.77857 | 36933 ft | 405 kts | 185° |
| 2026-05-07 15:40 | 43.86669 | 4.77855 | 36947 ft | 404 kts | 185° |
| 2026-05-07 15:40 | 43.81043 | 4.77847 | 36954 ft | 404 kts | 185° |
| 2026-05-07 15:41 | 43.75414 | 4.77826 | 36960 ft | 405 kts | 185° |
| 2026-05-07 15:41 | 43.69785 | 4.77815 | 36952 ft | 404 kts | 186° |
| 2026-05-07 15:42 | 43.64167 | 4.77801 | 36981 ft | 403 kts | 186° |
| 2026-05-07 15:42 | 43.58554 | 4.77789 | 36989 ft | 403 kts | 186° |
| 2026-05-07 15:43 | 43.52949 | 4.77785 | 36976 ft | 403 kts | 186° |
| 2026-05-07 15:43 | 43.47353 | 4.77786 | 36990 ft | 402 kts | 186° |
| 2026-05-07 15:44 | 43.41764 | 4.77774 | 36994 ft | 401 kts | 186° |
| 2026-05-07 15:44 | 43.36193 | 4.77755 | 36994 ft | 400 kts | 186° |
| 2026-05-07 15:45 | 43.30628 | 4.77739 | 36987 ft | 399 kts | 186° |
| 2026-05-07 15:45 | 43.25083 | 4.77720 | 36997 ft | 398 kts | 186° |
| 2026-05-07 15:46 | 43.16794 | 4.77713 | 36999 ft | 396 kts | 186° |
| 2026-05-07 15:47 | 43.11285 | 4.77711 | 36979 ft | 396 kts | 186° |
| 2026-05-07 15:47 | 43.06759 | 4.77375 | 36988 ft | 387 kts | 197° |
| 2026-05-07 15:48 | 43.01837 | 4.74821 | 36994 ft | 376 kts | 212° |
| 2026-05-07 15:48 | 42.97271 | 4.71345 | 36992 ft | 376 kts | 212° |
| 2026-05-07 15:49 | 42.92700 | 4.67889 | 36991 ft | 376 kts | 212° |
| 2026-05-07 15:49 | 42.88128 | 4.64441 | 36984 ft | 375 kts | 212° |
| 2026-05-07 15:50 | 42.83560 | 4.60990 | 36986 ft | 375 kts | 212° |
| 2026-05-07 15:50 | 42.78999 | 4.57543 | 36988 ft | 375 kts | 212° |
| 2026-05-07 15:51 | 42.74428 | 4.54108 | 36995 ft | 375 kts | 212° |
| 2026-05-07 15:51 | 42.69853 | 4.50683 | 36991 ft | 375 kts | 212° |
| 2026-05-07 15:52 | 42.65281 | 4.47252 | 36994 ft | 375 kts | 212° |
| 2026-05-07 15:52 | 42.60711 | 4.43826 | 36995 ft | 375 kts | 212° |
| 2026-05-07 15:53 | 42.56135 | 4.40407 | 36993 ft | 375 kts | 212° |
| 2026-05-07 15:53 | 42.51560 | 4.36996 | 36977 ft | 375 kts | 211° |
| 2026-05-07 15:54 | 42.46991 | 4.33594 | 36986 ft | 375 kts | 211° |
| 2026-05-07 15:54 | 42.42423 | 4.30196 | 36990 ft | 374 kts | 211° |
| 2026-05-07 15:55 | 42.37857 | 4.26809 | 36991 ft | 374 kts | 211° |
| 2026-05-07 15:55 | 42.33295 | 4.23431 | 36991 ft | 374 kts | 211° |
| 2026-05-07 15:56 | 42.28729 | 4.20056 | 36986 ft | 374 kts | 211° |
| 2026-05-07 15:56 | 42.24172 | 4.16689 | 36997 ft | 373 kts | 211° |
| 2026-05-07 15:57 | 42.19617 | 4.13327 | 36992 ft | 373 kts | 211° |
| 2026-05-07 15:57 | 42.15054 | 4.09968 | 36991 ft | 373 kts | 211° |
| 2026-05-07 15:58 | 42.10500 | 4.06617 | 36978 ft | 373 kts | 211° |
| 2026-05-07 15:58 | 42.05975 | 4.03293 | 36984 ft | 373 kts | 211° |
| 2026-05-07 15:59 | 42.01423 | 3.99962 | 36985 ft | 372 kts | 211° |
| 2026-05-07 15:59 | 41.96875 | 3.96637 | 36986 ft | 372 kts | 211° |
| 2026-05-07 16:00 | 41.92237 | 3.93551 | 36982 ft | 375 kts | 201° |
| 2026-05-07 16:00 | 41.87096 | 3.92145 | 36973 ft | 378 kts | 194° |
| 2026-05-07 16:01 | 41.81915 | 3.90944 | 36980 ft | 378 kts | 194° |
| 2026-05-07 16:01 | 41.76739 | 3.89740 | 36981 ft | 378 kts | 194° |
| 2026-05-07 16:02 | 41.71558 | 3.88548 | 36982 ft | 378 kts | 194° |
| 2026-05-07 16:02 | 41.66377 | 3.87362 | 36975 ft | 377 kts | 194° |
| 2026-05-07 16:03 | 41.61196 | 3.86183 | 36976 ft | 377 kts | 194° |
| 2026-05-07 16:03 | 41.56020 | 3.84990 | 36979 ft | 377 kts | 194° |
| 2026-05-07 16:04 | 41.50847 | 3.83798 | 36977 ft | 378 kts | 194° |
| 2026-05-07 16:04 | 41.45703 | 3.82624 | 36969 ft | 377 kts | 194° |
| 2026-05-07 16:05 | 41.40529 | 3.81437 | 36975 ft | 377 kts | 194° |
| 2026-05-07 16:05 | 41.35356 | 3.80258 | 36984 ft | 377 kts | 194° |
| 2026-05-07 16:06 | 41.30177 | 3.79080 | 36982 ft | 377 kts | 193° |
| 2026-05-07 16:06 | 41.25014 | 3.77910 | 36975 ft | 377 kts | 194° |
| 2026-05-07 16:07 | 41.19835 | 3.76736 | 36972 ft | 377 kts | 193° |
| 2026-05-07 16:07 | 41.14705 | 3.75376 | 36968 ft | 373 kts | 201° |
| 2026-05-07 16:08 | 41.09874 | 3.72908 | 36971 ft | 372 kts | 204° |
| 2026-05-07 16:08 | 41.05052 | 3.70414 | 36945 ft | 372 kts | 204° |
| 2026-05-07 16:09 | 41.00218 | 3.67919 | 36934 ft | 373 kts | 204° |
| 2026-05-07 16:09 | 40.95367 | 3.65427 | 36940 ft | 375 kts | 204° |
| 2026-05-07 16:10 | 40.90501 | 3.62935 | 36945 ft | 375 kts | 204° |
| 2026-05-07 16:10 | 40.85626 | 3.60440 | 36945 ft | 376 kts | 204° |
| 2026-05-07 16:11 | 40.80772 | 3.57955 | 36670 ft | 377 kts | 204° |
| 2026-05-07 16:11 | 40.78301 | 3.56693 | 36412 ft | 376 kts | 204° |
| 2026-05-07 16:11 | 40.75898 | 3.55468 | 36111 ft | 372 kts | 204° |
| 2026-05-07 16:11 | 40.73474 | 3.54234 | 35670 ft | 367 kts | 204° |
| 2026-05-07 16:12 | 40.71107 | 3.53031 | 35241 ft | 362 kts | 203° |
| 2026-05-07 16:12 | 40.68773 | 3.51841 | 34804 ft | 356 kts | 203° |
| 2026-05-07 16:12 | 40.66508 | 3.50683 | 34386 ft | 352 kts | 203° |
| 2026-05-07 16:12 | 40.64238 | 3.49523 | 33962 ft | 347 kts | 203° |
| 2026-05-07 16:13 | 40.62001 | 3.48385 | 33503 ft | 342 kts | 203° |
| 2026-05-07 16:13 | 40.59801 | 3.47270 | 33092 ft | 337 kts | 203° |
| 2026-05-07 16:13 | 40.57629 | 3.46170 | 32690 ft | 332 kts | 203° |
| 2026-05-07 16:13 | 40.55488 | 3.45088 | 32293 ft | 327 kts | 203° |
| 2026-05-07 16:14 | 40.53381 | 3.44021 | 31906 ft | 322 kts | 203° |
| 2026-05-07 16:14 | 40.51307 | 3.42970 | 31530 ft | 318 kts | 203° |
| 2026-05-07 16:14 | 40.49250 | 3.41927 | 31145 ft | 314 kts | 203° |
| 2026-05-07 16:14 | 40.47218 | 3.40896 | 30781 ft | 311 kts | 203° |
| 2026-05-07 16:15 | 40.45195 | 3.39940 | 30367 ft | 310 kts | 198° |
| 2026-05-07 16:15 | 40.43070 | 3.39423 | 29939 ft | 312 kts | 189° |
| 2026-05-07 16:15 | 40.40897 | 3.39416 | 29487 ft | 314 kts | 183° |
| 2026-05-07 16:15 | 40.38708 | 3.39550 | 29089 ft | 314 kts | 183° |
| 2026-05-07 16:16 | 40.36528 | 3.39678 | 28687 ft | 313 kts | 182° |
| 2026-05-07 16:16 | 40.34351 | 3.39803 | 28295 ft | 312 kts | 182° |
| 2026-05-07 16:16 | 40.32184 | 3.39928 | 27895 ft | 312 kts | 182° |
| 2026-05-07 16:17 | 40.27960 | 3.40170 | 27120 ft | 310 kts | 182° |
| 2026-05-07 16:17 | 40.25810 | 3.40291 | 26716 ft | 309 kts | 182° |
| 2026-05-07 16:17 | 40.23664 | 3.40412 | 26315 ft | 308 kts | 181° |
| 2026-05-07 16:17 | 40.21524 | 3.40532 | 25908 ft | 308 kts | 181° |
| 2026-05-07 16:18 | 40.19397 | 3.40654 | 25486 ft | 307 kts | 181° |
| 2026-05-07 16:18 | 40.17259 | 3.40774 | 25072 ft | 306 kts | 181° |
| 2026-05-07 16:18 | 40.15134 | 3.40894 | 24644 ft | 305 kts | 180° |
| 2026-05-07 16:18 | 40.13013 | 3.41013 | 24218 ft | 305 kts | 180° |
| 2026-05-07 16:19 | 40.10893 | 3.41132 | 23789 ft | 305 kts | 180° |
| 2026-05-07 16:19 | 40.08775 | 3.41253 | 23314 ft | 305 kts | 179° |
| 2026-05-07 16:19 | 40.04503 | 3.41495 | 22426 ft | 303 kts | 179° |
| 2026-05-07 16:20 | 40.02405 | 3.41611 | 22003 ft | 301 kts | 179° |
| 2026-05-07 16:20 | 40.00318 | 3.41727 | 21588 ft | 300 kts | 179° |
| 2026-05-07 16:20 | 39.98233 | 3.41843 | 21174 ft | 299 kts | 179° |
| 2026-05-07 16:20 | 39.96155 | 3.41956 | 20773 ft | 299 kts | 178° |
| 2026-05-07 16:21 | 39.94081 | 3.42071 | 20369 ft | 299 kts | 178° |
| 2026-05-07 16:21 | 39.92008 | 3.42189 | 19969 ft | 299 kts | 178° |
| 2026-05-07 16:21 | 39.89927 | 3.42308 | 19568 ft | 299 kts | 178° |
| 2026-05-07 16:21 | 39.87844 | 3.42424 | 19172 ft | 299 kts | 178° |
| 2026-05-07 16:22 | 39.85766 | 3.42538 | 18771 ft | 300 kts | 178° |
| 2026-05-07 16:22 | 39.83709 | 3.42656 | 18380 ft | 301 kts | 178° |
| 2026-05-07 16:22 | 39.81588 | 3.42776 | 17948 ft | 302 kts | 178° |
| 2026-05-07 16:22 | 39.79488 | 3.42892 | 17542 ft | 301 kts | 178° |
| 2026-05-07 16:23 | 39.77393 | 3.43003 | 17158 ft | 301 kts | 178° |
| 2026-05-07 16:23 | 39.75292 | 3.43117 | 16912 ft | 306 kts | 176° |
| 2026-05-07 16:23 | 39.73186 | 3.43147 | 16926 ft | 310 kts | 185° |
| 2026-05-07 16:23 | 39.71091 | 3.42445 | 16936 ft | 314 kts | 203° |
| 2026-05-07 16:24 | 39.69237 | 3.40922 | 16423 ft | 320 kts | 220° |
| 2026-05-07 16:24 | 39.67846 | 3.38571 | 15478 ft | 335 kts | 241° |
| 2026-05-07 16:24 | 39.66864 | 3.35841 | 15255 ft | 328 kts | 242° |
| 2026-05-07 16:24 | 39.65900 | 3.33264 | 15120 ft | 318 kts | 242° |
| 2026-05-07 16:25 | 39.64915 | 3.30715 | 14869 ft | 313 kts | 240° |
| 2026-05-07 16:25 | 39.63930 | 3.28198 | 14512 ft | 312 kts | 240° |
| 2026-05-07 16:25 | 39.62943 | 3.25682 | 14093 ft | 314 kts | 240° |
| 2026-05-07 16:25 | 39.61953 | 3.23146 | 13717 ft | 314 kts | 241° |
| 2026-05-07 16:26 | 39.60971 | 3.20618 | 13333 ft | 313 kts | 241° |
| 2026-05-07 16:26 | 39.60000 | 3.18110 | 12959 ft | 311 kts | 240° |
| 2026-05-07 16:26 | 39.59037 | 3.15613 | 12633 ft | 308 kts | 241° |
| 2026-05-07 16:26 | 39.58413 | 3.13958 | 12425 ft | 306 kts | 241° |
| 2026-05-07 16:27 | 39.57416 | 3.10545 | 12166 ft | 297 kts | 250° |
| 2026-05-07 16:27 | 39.56954 | 3.07936 | 11740 ft | 299 kts | 256° |
| 2026-05-07 16:27 | 39.56378 | 3.05348 | 11395 ft | 297 kts | 245° |
| 2026-05-07 16:27 | 39.55419 | 3.02997 | 11050 ft | 296 kts | 238° |
| 2026-05-07 16:28 | 39.54405 | 3.00673 | 10687 ft | 296 kts | 238° |
| 2026-05-07 16:28 | 39.53396 | 2.98360 | 10352 ft | 294 kts | 238° |
| 2026-05-07 16:28 | 39.52394 | 2.96063 | 10019 ft | 293 kts | 239° |
| 2026-05-07 16:28 | 39.51392 | 2.93766 | 9664 ft | 291 kts | 237° |
| 2026-05-07 16:29 | 39.50395 | 2.91485 | 9246 ft | 291 kts | 238° |
| 2026-05-07 16:29 | 39.49403 | 2.89217 | 8825 ft | 291 kts | 238° |
| 2026-05-07 16:29 | 39.48404 | 2.86944 | 8420 ft | 290 kts | 238° |
| 2026-05-07 16:29 | 39.47408 | 2.84682 | 8015 ft | 288 kts | 239° |
| 2026-05-07 16:30 | 39.46419 | 2.82440 | 7647 ft | 286 kts | 239° |
| 2026-05-07 16:30 | 39.45436 | 2.80209 | 7250 ft | 286 kts | 238° |
| 2026-05-07 16:30 | 39.44472 | 2.78013 | 7107 ft | 274 kts | 238° |
| 2026-05-07 16:30 | 39.43679 | 2.75823 | 6981 ft | 262 kts | 251° |
| 2026-05-07 16:31 | 39.43319 | 2.73617 | 6853 ft | 241 kts | 263° |
| 2026-05-07 16:31 | 39.43139 | 2.71526 | 6726 ft | 228 kts | 262° |
| 2026-05-07 16:31 | 39.42957 | 2.69518 | 6477 ft | 222 kts | 262° |
| 2026-05-07 16:31 | 39.42771 | 2.67513 | 5886 ft | 228 kts | 262° |
| 2026-05-07 16:32 | 39.42578 | 2.65458 | 5272 ft | 232 kts | 263° |
| 2026-05-07 16:32 | 39.42386 | 2.63369 | 4689 ft | 235 kts | 263° |
| 2026-05-07 16:32 | 39.42197 | 2.61311 | 4437 ft | 225 kts | 263° |
| 2026-05-07 16:32 | 39.42015 | 2.59339 | 4300 ft | 217 kts | 263° |
| 2026-05-07 16:33 | 39.41840 | 2.57420 | 4161 ft | 215 kts | 263° |
| 2026-05-07 16:33 | 39.41668 | 2.55502 | 3977 ft | 214 kts | 265° |
| 2026-05-07 16:33 | 39.41877 | 2.53648 | 3800 ft | 209 kts | 298° |
| 2026-05-07 16:33 | 39.42812 | 2.52255 | 3564 ft | 205 kts | 333° |
| 2026-05-07 16:34 | 39.44104 | 2.51768 | 3489 ft | 186 kts | 4° |
| 2026-05-07 16:34 | 39.45300 | 2.52126 | 3365 ft | 173 kts | 31° |
| 2026-05-07 16:34 | 39.46182 | 2.53120 | 3184 ft | 166 kts | 57° |
| 2026-05-07 16:34 | 39.46781 | 2.54368 | 2987 ft | 162 kts | 60° |
| 2026-05-07 16:35 | 39.47354 | 2.55570 | 2778 ft | 151 kts | 60° |
| 2026-05-07 16:35 | 39.47881 | 2.56677 | 2589 ft | 140 kts | 60° |
| 2026-05-07 16:35 | 39.48381 | 2.57729 | 2442 ft | 136 kts | 60° |
| 2026-05-07 16:35 | 39.48872 | 2.58761 | 2246 ft | 134 kts | 60° |
| 2026-05-07 16:36 | 39.49358 | 2.59784 | 2076 ft | 133 kts | 60° |
| 2026-05-07 16:36 | 39.49840 | 2.60798 | 1889 ft | 132 kts | 59° |
| 2026-05-07 16:36 | 39.50323 | 2.61815 | 1712 ft | 132 kts | 60° |
| 2026-05-07 16:36 | 39.50804 | 2.62827 | 1533 ft | 132 kts | 59° |
| 2026-05-07 16:37 | 39.51283 | 2.63834 | 1357 ft | 131 kts | 59° |
| 2026-05-07 16:37 | 39.51759 | 2.64838 | 1181 ft | 132 kts | 58° |
| 2026-05-07 16:37 | 39.52077 | 2.65507 | 1065 ft | 131 kts | 58° |
| 2026-05-07 16:37 | 39.52552 | 2.66510 | 886 ft | 131 kts | 58° |
| 2026-05-07 16:38 | 39.53042 | 2.67541 | 701 ft | 135 kts | 61° |
| 2026-05-07 16:38 | 39.53531 | 2.68572 | 520 ft | 133 kts | 59° |
| 2026-05-07 16:38 | 39.54015 | 2.69594 | 355 ft | 132 kts | 59° |
| 2026-05-07 16:38 | 39.54507 | 2.70603 | 162 ft | 133 kts | 59° |
| 2026-05-07 16:39 | 39.54987 | 2.71617 | 52 ft | 131 kts | 59° |
| 2026-05-07 16:39 | 39.55392 | 2.72489 | 38 ft | 77 kts | 59° |
| 2026-05-07 16:39 | 39.55495 | 2.72836 | 38 ft | 38 kts | 85° |
| 2026-05-07 16:39 | 39.55499 | 2.73019 | 38 ft | 0 kts | 89° |
| 2026-05-07 16:41 | 39.55499 | 2.73020 | 38 ft | 1 kts | 89° |
| 2026-05-07 16:41 | 39.55503 | 2.73121 | 38 ft | 21 kts | 84° |
| 2026-05-07 16:41 | 39.55567 | 2.73315 | 38 ft | 25 kts | 58° |
| 2026-05-07 16:41 | 39.55611 | 2.73504 | 37 ft | 22 kts | 127° |
| 2026-05-07 16:42 | 39.55499 | 2.73596 | 38 ft | 24 kts | 148° |
| 2026-05-07 16:42 | 39.55338 | 2.73725 | 38 ft | 28 kts | 148° |
| 2026-05-07 16:42 | 39.55167 | 2.73861 | 38 ft | 30 kts | 148° |
| 2026-05-07 16:42 | 39.54994 | 2.73996 | 36 ft | 29 kts | 150° |
| 2026-05-07 16:43 | 39.54835 | 2.74118 | 38 ft | 23 kts | 149° |
| 2026-05-07 16:43 | 39.54766 | 2.74078 | 38 ft | 8 kts | 243° |
| 2026-05-07 16:43 | 39.54710 | 2.73964 | 38 ft | 26 kts | 238° |
| 2026-05-07 16:43 | 39.54611 | 2.73752 | 37 ft | 25 kts | 239° |
| 2026-05-07 16:44 | 39.54615 | 2.73618 | 38 ft | 8 kts | 323° |
| 2026-05-07 16:44 | 39.54630 | 2.73561 | 38 ft | 6 kts | 292° |
| 2026-05-07 16:44 | 39.54661 | 2.73502 | 38 ft | 5 kts | 272° |
| 2026-05-07 16:44 | 39.54661 | 2.73500 | 38 ft | 0 kts | 270° |
| 2026-05-07 16:45 | 39.54658 | 2.73481 | 38 ft | 8 kts | 260° |
| 2026-05-07 16:45 | 39.54654 | 2.73451 | 38 ft | 2 kts | 260° |
| 2026-05-07 16:45 | 39.54650 | 2.73425 | 38 ft | 0 kts | 259° |